createdAt,value
2023-01-19T00:02:43.521Z,1.80
2023-01-19T00:07:46.030Z,2.38
2023-01-19T00:12:47.697Z,1.80
2023-01-19T00:17:49.337Z,1.70
2023-01-19T00:22:51.192Z,1.42
2023-01-19T00:27:52.871Z,1.52
2023-01-19T00:32:54.572Z,1.67
2023-01-19T00:37:58.157Z,1.10
2023-01-19T00:43:00.709Z,1.10
2023-01-19T00:48:02.658Z,1.08
2023-01-19T00:53:04.399Z,1.10
2023-01-19T00:58:07.365Z,1.10
2023-01-19T01:03:09.989Z,1.38
2023-01-19T01:08:11.723Z,1.73
2023-01-19T01:13:20.682Z,1.23
2023-01-19T01:18:26.400Z,2.50
2023-01-19T01:23:28.067Z,2.20
2023-01-19T01:28:29.729Z,1.60
2023-01-19T01:33:40.953Z,1.65
2023-01-19T01:38:43.424Z,1.65
2023-01-19T01:43:51.665Z,2.38
2023-01-19T01:49:07.777Z,3.00
2023-01-19T01:54:21.329Z,3.72
2023-01-19T01:59:34.897Z,3.20
2023-01-19T02:04:38.453Z,3.53
2023-01-19T02:09:58.828Z,2.85
2023-01-19T02:15:00.427Z,3.00
2023-01-19T02:20:02.301Z,2.90
2023-01-19T02:25:05.669Z,2.72
2023-01-19T02:30:08.693Z,2.78
2023-01-19T02:35:12.251Z,2.95
2023-01-19T02:40:20.222Z,2.50
2023-01-19T02:45:23.420Z,2.10
2023-01-19T02:50:39.495Z,2.22
2023-01-19T02:55:46.996Z,2.33
2023-01-19T03:00:57.622Z,2.28
2023-01-19T03:06:01.964Z,2.40
2023-01-19T03:11:14.763Z,2.20
2023-01-19T03:16:29.850Z,2.08
2023-01-19T03:21:35.897Z,1.83
2023-01-19T03:26:44.134Z,2.20
2023-01-19T03:31:49.944Z,1.88
2023-01-19T03:36:59.055Z,2.10
2023-01-19T03:42:08.590Z,2.15
2023-01-19T03:47:11.814Z,1.73
2023-01-19T03:52:14.288Z,1.52
2023-01-19T03:57:15.999Z,1.60
2023-01-19T04:02:17.808Z,1.80
2023-01-19T04:07:19.526Z,1.60
2023-01-19T04:12:21.185Z,1.48
2023-01-19T04:17:22.878Z,1.42
2023-01-19T04:22:24.521Z,1.63
2023-01-19T04:27:26.203Z,1.35
2023-01-19T04:32:27.831Z,1.25
2023-01-19T04:37:29.476Z,1.30
2023-01-19T04:42:31.142Z,1.30
2023-01-19T04:47:32.863Z,1.50
2023-01-19T04:52:35.770Z,1.80
2023-01-19T04:57:37.671Z,1.98
2023-01-19T05:02:39.351Z,1.52
2023-01-19T05:07:41.221Z,1.60
2023-01-19T05:12:42.935Z,1.38
2023-01-19T05:17:44.644Z,1.20
2023-01-19T05:22:50.720Z,1.02
2023-01-19T05:27:52.589Z,1.10
2023-01-19T05:32:54.219Z,1.02
2023-01-19T05:37:55.844Z,1.20
2023-01-19T05:43:01.323Z,1.05
2023-01-19T05:48:03.344Z,0.90
2023-01-19T05:53:04.973Z,1.33
2023-01-19T05:58:06.630Z,1.48
2023-01-19T06:03:08.303Z,1.55
2023-01-19T06:08:09.924Z,1.50
2023-01-19T06:13:11.619Z,1.52
2023-01-19T06:18:15.257Z,1.70
2023-01-19T06:23:16.901Z,1.50
2023-01-19T06:28:18.862Z,1.67
2023-01-19T06:33:21.104Z,1.50
2023-01-19T06:38:23.270Z,1.63
2023-01-19T06:43:25.918Z,1.58
2023-01-19T06:48:27.806Z,1.55
2023-01-19T06:53:30.342Z,1.42
2023-01-19T06:58:32.155Z,1.70
2023-01-19T07:03:34.981Z,1.33
2023-01-19T07:08:37.777Z,1.45
2023-01-19T07:13:40.515Z,1.45
2023-01-19T07:18:42.232Z,1.50
2023-01-19T07:23:43.881Z,1.65
2023-01-19T07:28:47.369Z,2.30
2023-01-19T07:33:50.136Z,2.10
2023-01-19T07:38:51.854Z,1.63
2023-01-19T07:43:53.548Z,2.05
2023-01-19T07:48:55.326Z,2.33
2023-01-19T07:53:56.946Z,2.35
2023-01-19T07:58:58.639Z,2.10
2023-01-19T08:04:00.313Z,2.05
2023-01-19T08:09:02.489Z,2.30
2023-01-19T08:14:06.960Z,2.08
2023-01-19T08:19:09.781Z,1.80
2023-01-19T08:24:18.823Z,1.85
2023-01-19T08:29:20.515Z,1.90
2023-01-19T08:34:22.223Z,1.80
2023-01-19T08:39:24.587Z,1.63
2023-01-19T08:44:27.471Z,1.52
2023-01-19T08:49:29.111Z,1.60
2023-01-19T08:54:30.839Z,1.67
2023-01-19T08:59:32.592Z,1.40
2023-01-19T09:04:35.165Z,1.95
2023-01-19T09:09:38.045Z,2.00
2023-01-19T09:14:39.728Z,1.70
2023-01-19T09:19:41.692Z,1.90
2023-01-19T09:24:43.473Z,2.72
2023-01-19T09:29:52.479Z,2.83
2023-01-19T09:34:55.213Z,2.47
2023-01-19T09:39:57.010Z,2.30
2023-01-19T09:44:58.937Z,2.17
2023-01-19T09:50:10.671Z,2.55
2023-01-19T09:55:26.233Z,2.55
2023-01-19T10:00:31.016Z,2.63
2023-01-19T10:05:47.557Z,2.00
2023-01-19T10:16:18.478Z,2.10
2023-01-19T10:21:24.996Z,2.30
2023-01-19T10:26:34.024Z,2.33
2023-01-19T10:31:37.600Z,1.85
2023-01-19T10:36:41.143Z,2.17
2023-01-19T10:41:49.038Z,2.30
2023-01-19T10:46:51.528Z,1.90
2023-01-19T10:51:54.767Z,2.05
2023-01-19T10:57:04.251Z,1.70
2023-01-19T11:02:29.306Z,1.70
2023-01-19T11:07:33.790Z,1.70
2023-01-19T11:12:40.766Z,2.10
2023-01-19T11:17:48.344Z,2.17
2023-01-19T11:23:22.217Z,1.90
2023-01-19T11:28:56.066Z,2.20
2023-01-19T11:34:04.421Z,1.77
2023-01-19T11:39:18.147Z,1.95
2023-01-19T11:44:22.818Z,1.90
2023-01-19T11:49:47.532Z,2.05
2023-01-19T11:55:03.570Z,2.05
2023-01-19T12:00:36.224Z,2.13
2023-01-19T12:05:41.997Z,1.90
2023-01-19T12:10:47.274Z,2.30
2023-01-19T12:15:55.681Z,1.77
2023-01-19T12:20:58.974Z,1.90
2023-01-19T12:26:27.959Z,2.25
2023-01-19T12:31:29.891Z,1.77
2023-01-19T12:36:35.578Z,1.30
2023-01-19T12:41:38.924Z,1.10
2023-01-19T12:46:44.528Z,1.10
2023-01-19T12:51:46.960Z,1.35
2023-01-19T12:56:49.744Z,2.00
2023-01-19T13:02:26.756Z,1.60
2023-01-19T13:07:28.443Z,1.55
2023-01-19T13:12:30.676Z,1.55
2023-01-19T13:17:44.602Z,1.60
2023-01-19T13:22:50.200Z,1.98
2023-01-19T13:27:52.008Z,1.50
2023-01-19T13:33:05.598Z,1.80
2023-01-19T13:38:11.819Z,1.80
2023-01-19T13:43:19.602Z,2.13
2023-01-19T13:48:23.767Z,2.08
2023-01-19T13:53:25.645Z,1.60
2023-01-19T13:58:28.669Z,1.70
2023-01-19T14:03:30.385Z,1.70
2023-01-19T14:08:33.927Z,1.70
2023-01-19T14:13:40.294Z,1.80
2023-01-19T14:18:41.996Z,1.55
2023-01-19T14:24:20.647Z,1.70
2023-01-19T14:29:32.805Z,1.77
2023-01-19T14:34:48.921Z,1.88
2023-01-19T14:39:52.001Z,1.70
2023-01-19T14:44:56.571Z,1.73
2023-01-19T14:50:07.548Z,1.70
2023-01-19T14:55:33.926Z,2.10
2023-01-19T15:00:35.739Z,2.53
2023-01-19T15:05:39.579Z,2.60
2023-01-19T15:10:41.648Z,1.90
2023-01-19T15:15:43.316Z,2.25
2023-01-19T15:20:45.003Z,1.67
2023-01-19T15:25:46.664Z,2.10
2023-01-19T15:30:48.384Z,1.80
2023-01-19T15:35:50.540Z,1.50
2023-01-19T15:40:52.260Z,1.30
2023-01-19T15:46:02.501Z,2.20
2023-01-19T15:51:04.324Z,2.17
2023-01-19T15:56:06.248Z,1.92
2023-01-19T16:01:13.384Z,2.00
2023-01-19T16:06:18.999Z,1.85
2023-01-19T16:11:20.658Z,1.70
2023-01-19T16:16:24.835Z,1.88
2023-01-19T16:21:27.035Z,2.20
2023-01-19T16:26:34.271Z,2.17
2023-01-19T16:31:37.140Z,1.92
2023-01-19T16:36:41.676Z,2.65
2023-01-19T16:41:44.659Z,3.50
2023-01-19T16:46:49.878Z,3.92
2023-01-19T16:51:54.850Z,2.63
2023-01-19T16:56:57.566Z,3.05
2023-01-19T17:01:59.413Z,3.17
2023-01-19T17:07:01.543Z,3.42
2023-01-19T17:12:03.972Z,3.58
2023-01-19T17:17:06.040Z,3.17
2023-01-19T17:22:07.849Z,2.63
2023-01-19T17:27:11.389Z,2.58
2023-01-19T17:32:13.589Z,2.30
2023-01-19T17:37:15.583Z,2.50
2023-01-19T17:42:17.760Z,2.85
2023-01-19T17:47:26.332Z,2.63
2023-01-19T17:52:28.413Z,2.55
2023-01-19T17:57:30.866Z,3.40
2023-01-19T18:02:34.712Z,4.82
2023-01-19T18:07:36.818Z,5.82
2023-01-19T18:12:41.263Z,7.20
2023-01-19T18:17:43.873Z,6.65
2023-01-19T18:22:46.200Z,5.68
2023-01-19T18:27:48.957Z,5.40
2023-01-19T18:32:52.655Z,5.75
2023-01-19T18:37:57.283Z,9.98
2023-01-19T18:43:01.156Z,10.73
2023-01-19T18:48:05.303Z,7.60
2023-01-19T18:53:07.307Z,8.25
2023-01-19T18:58:09.705Z,8.18
2023-01-19T19:03:11.992Z,8.77
2023-01-19T19:08:14.619Z,8.88
2023-01-19T19:13:17.775Z,7.72
2023-01-19T19:18:20.905Z,9.05
2023-01-19T19:23:23.911Z,9.32
2023-01-19T19:28:26.489Z,9.57
2023-01-19T19:33:29.058Z,7.85
2023-01-19T19:38:33.844Z,8.75
2023-01-19T19:43:36.964Z,9.20
2023-01-19T19:48:57.443Z,8.98
2023-01-19T19:54:02.699Z,9.25
2023-01-19T19:59:05.577Z,8.65
2023-01-19T20:04:12.296Z,7.15
2023-01-19T20:14:18.005Z,6.93
2023-01-19T20:19:20.808Z,7.35
2023-01-19T20:24:23.725Z,8.75
2023-01-19T20:29:29.668Z,9.13
2023-01-19T20:34:33.830Z,8.57
2023-01-19T20:39:38.356Z,9.65
2023-01-19T20:44:40.783Z,9.30
2023-01-19T20:49:43.216Z,9.32
2023-01-19T20:54:45.327Z,8.50
2023-01-19T20:59:47.389Z,8.63
2023-01-19T21:04:53.886Z,9.73
2023-01-19T21:14:57.436Z,9.40
2023-01-19T21:19:59.634Z,10.43
2023-01-19T21:25:02.044Z,9.50
2023-01-19T21:30:03.974Z,9.55
2023-01-19T21:35:06.255Z,9.18
2023-01-19T21:40:08.500Z,8.70
2023-01-19T21:45:10.958Z,8.30
2023-01-19T21:50:12.933Z,8.35
2023-01-19T21:55:14.935Z,9.52
2023-01-19T22:00:17.448Z,7.55
2023-01-19T22:05:19.117Z,7.47
2023-01-19T22:10:20.934Z,5.85
2023-01-19T22:15:22.633Z,6.18
2023-01-19T22:20:24.395Z,6.13
2023-01-19T22:25:27.998Z,5.35
2023-01-19T22:30:29.871Z,5.57
2023-01-19T22:35:31.582Z,6.38
2023-01-19T22:40:33.306Z,5.88
2023-01-19T22:45:34.997Z,5.55
2023-01-19T22:50:36.637Z,7.18
2023-01-19T22:55:38.374Z,7.45
2023-01-19T23:00:40.017Z,8.65
2023-01-19T23:05:41.861Z,8.07
2023-01-19T23:10:43.558Z,7.18
2023-01-19T23:15:45.222Z,7.20
2023-01-19T23:20:46.938Z,8.18
2023-01-19T23:25:48.579Z,7.80
2023-01-19T23:30:50.326Z,7.47
2023-01-19T23:35:54.378Z,7.75
2023-01-19T23:40:58.905Z,7.25
2023-01-19T23:46:05.320Z,7.60
2023-01-19T23:51:15.229Z,6.35
2023-01-19T23:56:20.174Z,7.53
